Time;durP1;ratioP1;P1;durP2;ratioP2;P2;SDS_P1;SDS_P2;PMS_P1;PMS_P2;Temp;Humidity;BMP_temperature;BMP_pressure;BME280_temperature;BME280_humidity;BME280_pressure;Samples;Min_cycle;Max_cycle;Signal;HPM_P1;HPM_P2
2022/08/26 00:00:51;;;;;;;5.57;4.83;;;;;;;20.72;100.00;99850.66;4907051;29;20197;-77
2022/08/26 00:03:17;;;;;;;5.03;4.47;;;;;;;20.65;100.00;99851.94;4893926;29;20202;-76
2022/08/26 00:05:44;;;;;;;5.60;5.10;;;;;;;20.57;100.00;99855.00;4892552;29;20680;-76
2022/08/26 00:08:12;;;;;;;5.23;4.83;;;;;;;20.44;99.72;99857.47;4891400;29;21037;-74
2022/08/26 00:10:39;;;;;;;5.07;4.67;;;;;;;20.36;99.26;99857.06;4893455;29;20215;-76
2022/08/26 00:13:06;;;;;;;5.10;4.70;;;;;;;20.28;98.96;99861.91;4891573;29;20192;-76
2022/08/26 00:15:31;;;;;;;4.93;4.53;;;;;;;20.21;98.90;99854.38;4894020;29;20243;-75
2022/08/26 00:17:57;;;;;;;5.00;4.57;;;;;;;20.16;98.87;99850.31;4890144;29;20216;-76
2022/08/26 00:20:26;;;;;;;5.57;5.00;;;;;;;20.12;99.00;99856.69;4907103;29;20681;-76
2022/08/26 00:22:51;;;;;;;5.00;4.60;;;;;;;20.09;99.28;99853.28;4889905;29;20582;-73
2022/08/26 00:25:17;;;;;;;5.10;4.60;;;;;;;20.06;99.51;99850.81;4892818;29;20204;-75
2022/08/26 00:27:42;;;;;;;4.70;4.30;;;;;;;20.06;99.23;99847.34;4893519;29;20215;-75
2022/08/26 00:30:12;;;;;;;4.90;4.50;;;;;;;20.05;99.43;99843.88;4892648;29;20633;-76
2022/08/26 00:32:37;;;;;;;5.10;4.70;;;;;;;20.06;99.30;99858.69;4891773;29;20208;-76
2022/08/26 00:35:03;;;;;;;5.40;4.90;;;;;;;20.05;99.39;99850.91;4891930;29;20191;-76
2022/08/26 00:37:29;;;;;;;5.13;4.73;;;;;;;20.05;99.69;99854.38;4891391;29;20235;-77
2022/08/26 00:39:54;;;;;;;4.77;4.40;;;;;;;20.05;100.00;99854.38;4893476;29;20206;-77
2022/08/26 00:42:20;;;;;;;4.33;4.00;;;;;;;20.07;100.00;99862.19;4891387;29;20194;-75
2022/08/26 00:44:45;;;;;;;4.87;4.47;;;;;;;20.08;100.00;99863.88;4892953;29;20192;-75
2022/08/26 00:47:30;;;;;;;4.80;4.40;;;;;;;20.07;100.00;99859.56;4891423;29;20587;-77
2022/08/26 00:49:56;;;;;;;5.10;4.60;;;;;;;20.03;100.00;99858.03;4890215;29;20246;-74
2022/08/26 00:52:23;;;;;;;5.70;5.20;;;;;;;19.98;100.00;99854.81;4891777;29;20665;-76
2022/08/26 00:54:58;;;;;;;5.10;4.70;;;;;;;19.93;100.00;99860.31;4891770;29;20728;-75
2022/08/26 00:57:26;;;;;;;5.23;4.80;;;;;;;19.86;100.00;99864.19;4906340;29;20254;-75
2022/08/26 00:59:55;;;;;;;5.30;4.80;;;;;;;19.78;100.00;99856.72;4908112;29;20698;-75
2022/08/26 01:02:21;;;;;;;5.77;5.20;;;;;;;19.72;99.96;99852.66;4891469;29;20192;-75
2022/08/26 01:04:50;;;;;;;5.60;5.10;;;;;;;19.68;100.00;99850.25;4890992;29;20259;-75
2022/08/26 01:07:16;;;;;;;6.83;4.80;;;;;;;19.63;100.00;99854.00;4912285;29;20250;-75
2022/08/26 01:09:41;;;;;;;6.00;5.50;;;;;;;19.61;100.00;99849.75;4890850;29;20635;-75
2022/08/26 01:12:06;;;;;;;6.13;5.23;;;;;;;19.59;100.00;99856.84;4904585;29;20201;-75
2022/08/26 01:14:34;;;;;;;6.00;5.30;;;;;;;19.58;100.00;99852.56;4905090;29;20693;-75
2022/08/26 01:17:02;;;;;;;5.50;5.00;;;;;;;19.57;100.00;99850.88;4891457;29;20602;-75
2022/08/26 01:19:31;;;;;;;7.03;4.93;;;;;;;19.55;100.00;99858.81;4905476;29;20259;-76
2022/08/26 01:22:01;;;;;;;6.00;5.40;;;;;;;19.52;100.00;99856.34;4892675;29;21108;-75
2022/08/26 01:24:28;;;;;;;7.67;5.10;;;;;;;19.48;100.00;99855.66;4889838;29;20222;-76
2022/08/26 01:27:05;;;;;;;7.00;5.13;;;;;;;19.46;100.00;99852.25;4891383;29;20243;-75
2022/08/26 01:29:34;;;;;;;8.57;5.67;;;;;;;19.44;100.00;99864.63;4906648;29;20231;-76
2022/08/26 01:32:00;;;;;;;13.03;5.80;;;;;;;19.44;100.00;99861.16;4890161;29;20202;-76
2022/08/26 01:34:37;;;;;;;9.20;5.83;;;;;;;19.44;100.00;99861.16;4890659;29;20193;-77
2022/08/26 01:37:13;;;;;;;13.57;6.33;;;;;;;19.44;100.00;99866.41;4906453;29;20341;-76
2022/08/26 01:39:39;;;;;;;11.87;7.00;;;;;;;19.41;100.00;99862.19;4888407;29;20193;-76
2022/08/26 01:42:09;;;;;;;17.27;6.60;;;;;;;19.38;100.00;99858.84;4892096;29;20281;-75
2022/08/26 01:44:44;;;;;;;11.63;6.47;;;;;;;19.30;100.00;99861.88;4892758;29;20277;-75
2022/08/26 01:47:13;;;;;;;12.00;6.20;;;;;;;19.22;100.00;99862.25;4902853;29;20219;-75
2022/08/26 01:49:41;;;;;;;8.97;6.03;;;;;;;19.15;100.00;99866.97;4892594;29;20189;-75
2022/08/26 01:52:09;;;;;;;14.80;6.83;;;;;;;19.10;100.00;99863.78;4893033;29;20773;-76
2022/08/26 01:54:34;;;;;;;9.23;6.60;;;;;;;19.04;100.00;99870.19;4890784;29;20303;-75
2022/08/26 01:57:02;;;;;;;9.53;5.90;;;;;;;18.99;100.00;99879.19;4890359;29;20582;-74
2022/08/26 01:59:28;;;;;;;12.03;6.40;;;;;;;18.95;100.00;99870.63;4891187;29;20199;-75
2022/08/26 02:01:54;;;;;;;9.53;6.00;;;;;;;18.93;100.00;99869.81;4891996;29;20198;-75
2022/08/26 02:04:28;;;;;;;13.23;6.20;;;;;;;18.92;100.00;99876.00;4904602;29;20195;-77
2022/08/26 02:06:55;;;;;;;9.77;5.80;;;;;;;18.93;100.00;99872.44;4891563;29;20773;-75
2022/08/26 02:09:22;;;;;;;12.27;6.10;;;;;;;18.93;100.00;99875.06;4890411;29;20193;-76
2022/08/26 02:11:48;;;;;;;11.13;6.40;;;;;;;18.95;100.00;99880.28;4891607;29;20222;-75
2022/08/26 02:14:18;;;;;;;7.87;5.80;;;;;;;18.97;100.00;99881.88;4892600;29;20656;-74
2022/08/26 02:16:45;;;;;;;9.50;6.13;;;;;;;18.96;100.00;99882.81;4894928;29;20225;-78
2022/08/26 02:19:15;;;;;;;7.27;6.10;;;;;;;18.95;100.00;99883.75;4894113;29;20635;-76
2022/08/26 02:21:41;;;;;;;8.20;5.57;;;;;;;18.93;100.00;99885.56;4908369;29;20673;-74
2022/08/26 02:24:09;;;;;;;9.57;5.53;;;;;;;18.93;100.00;99887.34;4894633;29;20199;-78
2022/08/26 02:26:34;;;;;;;7.60;5.30;;;;;;;18.88;100.00;99888.41;4896262;29;20215;-75
2022/08/26 02:29:12;;;;;;;7.37;5.70;;;;;;;18.86;100.00;99889.44;4894071;29;20193;-74
2022/08/26 02:31:37;;;;;;;8.97;5.40;;;;;;;18.82;100.00;99886.13;4896027;29;20225;-75
2022/08/26 02:34:12;;;;;;;7.50;6.07;;;;;;;18.81;100.00;99884.41;4907878;29;20194;-74
2022/08/26 02:36:38;;;;;;;10.47;5.80;;;;;;;18.80;100.00;99893.19;4910117;29;20223;-76
2022/08/26 02:39:04;;;;;;;7.30;6.10;;;;;;;18.82;100.00;99895.72;4894361;29;20221;-75
2022/08/26 02:41:29;;;;;;;9.00;5.90;;;;;;;18.85;100.00;99892.97;4895136;29;20620;-75
2022/08/26 02:43:54;;;;;;;10.93;6.67;;;;;;;18.88;100.00;99898.06;4894120;29;20200;-76
2022/08/26 02:46:20;;;;;;;10.73;6.30;;;;;;;18.89;100.00;99897.13;4894234;29;20224;-76
2022/08/26 02:48:45;;;;;;;10.17;6.10;;;;;;;18.89;100.00;99895.34;4895333;29;20195;-75
2022/08/26 02:51:11;;;;;;;9.77;6.37;;;;;;;18.88;100.00;99884.97;4894952;29;20305;-77
2022/08/26 02:53:36;;;;;;;8.30;6.53;;;;;;;18.85;100.00;99885.09;4908634;29;20195;-76
2022/08/26 02:56:03;;;;;;;6.83;5.80;;;;;;;18.82;100.00;99885.25;4894535;29;20246;-75
2022/08/26 02:58:28;;;;;;;10.50;5.83;;;;;;;18.79;100.00;99890.63;4895374;29;20846;-76
2022/08/26 03:00:54;;;;;;;7.63;6.13;;;;;;;18.74;100.00;99880.38;4908893;29;20188;-76
2022/08/26 03:03:19;;;;;;;8.90;5.40;;;;;;;18.68;100.00;99883.34;4892141;29;20193;-75
2022/08/26 03:05:45;;;;;;;9.40;5.93;;;;;;;18.65;100.00;99894.78;4894927;29;20454;-76
2022/08/26 03:08:10;;;;;;;6.63;5.90;;;;;;;18.64;100.00;99892.25;4895145;29;20286;-76
2022/08/26 03:10:37;;;;;;;7.57;5.33;;;;;;;18.61;100.00;99888.00;4893462;29;20210;-75
2022/08/26 03:13:02;;;;;;;8.63;6.13;;;;;;;18.60;100.00;99891.56;4894514;29;20204;-75
2022/08/26 03:15:28;;;;;;;6.40;5.70;;;;;;;18.58;100.00;99888.16;4894687;29;20207;-76
2022/08/26 03:17:53;;;;;;;6.60;6.03;;;;;;;18.56;100.00;99892.63;4895584;29;20245;-76
2022/08/26 03:20:19;;;;;;;5.70;5.20;;;;;;;18.54;100.00;99895.31;4894176;29;20200;-75
2022/08/26 03:22:44;;;;;;;6.20;5.60;;;;;;;18.49;100.00;99897.31;4892913;29;22336;-76
2022/08/26 03:25:13;;;;;;;7.77;6.37;;;;;;;18.47;100.00;99898.31;4892447;29;20218;-76
2022/08/26 03:27:39;;;;;;;6.90;5.73;;;;;;;18.44;100.00;99891.44;4892916;29;20219;-76
2022/08/26 03:32:49;;;;;;;7.37;5.90;;;;;;;18.50;100.00;99890.28;4891849;29;20682;-74
2022/08/26 03:35:14;;;;;;;6.40;5.80;;;;;;;18.51;100.00;99890.25;4894023;29;20208;-76
2022/08/26 03:37:40;;;;;;;6.40;5.93;;;;;;;18.51;100.00;99895.47;4893911;29;20687;-76
2022/08/26 03:40:09;;;;;;;6.27;5.67;;;;;;;18.53;100.00;99898.00;4893260;29;20190;-76
2022/08/26 03:42:36;;;;;;;6.33;5.80;;;;;;;18.52;100.00;99897.19;4908166;29;20649;-76
2022/08/26 03:45:03;;;;;;;6.97;5.50;;;;;;;18.51;100.00;99895.47;4909270;29;20222;-76
2022/08/26 03:47:32;;;;;;;5.87;5.27;;;;;;;18.47;100.00;99891.31;4892768;29;20229;-77
2022/08/26 03:49:58;;;;;;;6.40;5.80;;;;;;;18.43;100.00;99890.63;4894079;29;20196;-77
2022/08/26 03:52:23;;;;;;;7.70;6.13;;;;;;;18.41;100.00;99881.97;4891036;29;20202;-77
2022/08/26 03:54:49;;;;;;;7.33;6.07;;;;;;;18.36;100.00;99886.56;4906526;29;20208;-76
2022/08/26 03:57:14;;;;;;;7.17;6.20;;;;;;;18.31;100.00;99882.47;4890548;29;20224;-76
2022/08/26 03:59:39;;;;;;;5.83;5.23;;;;;;;18.26;100.00;99896.63;4909038;29;20353;-76
2022/08/26 04:02:05;;;;;;;6.27;5.77;;;;;;;18.22;100.00;99894.25;4890906;29;20679;-75
2022/08/26 04:04:30;;;;;;;6.40;5.80;;;;;;;18.18;100.00;99895.28;4892856;29;20664;-76
2022/08/26 04:06:57;;;;;;;5.33;4.93;;;;;;;18.16;100.00;99897.13;4889691;29;20249;-76
2022/08/26 04:09:23;;;;;;;6.57;6.07;;;;;;;18.12;100.00;99893.81;4908948;29;20360;-76
2022/08/26 04:11:49;;;;;;;6.20;5.07;;;;;;;18.09;100.00;99897.44;4892994;29;20219;-76
2022/08/26 04:14:17;;;;;;;6.57;5.97;;;;;;;18.09;100.00;99900.06;4892566;29;20250;-76
2022/08/26 04:16:44;;;;;;;7.23;6.63;;;;;;;18.08;100.00;99890.50;4893283;29;20219;-76
2022/08/26 04:19:11;;;;;;;6.80;6.20;;;;;;;18.06;100.00;99900.19;4895854;29;20198;-75
2022/08/26 04:21:37;;;;;;;6.47;5.87;;;;;;;18.04;100.00;99903.81;4909063;29;20193;-75
2022/08/26 04:24:04;;;;;;;7.53;6.83;;;;;;;18.02;100.00;99906.47;4908765;29;20194;-75
2022/08/26 04:26:36;;;;;;;6.83;6.23;;;;;;;17.99;100.00;99901.41;4907217;29;20217;-78
2022/08/26 04:29:04;;;;;;;6.80;6.30;;;;;;;17.98;100.00;99897.09;4892777;29;20746;-76
2022/08/26 04:31:30;;;;;;;6.23;5.83;;;;;;;18.00;100.00;99900.47;4893509;29;20765;-76
2022/08/26 04:33:55;;;;;;;6.37;5.77;;;;;;;18.00;100.00;99897.84;4907001;29;20237;-76
2022/08/26 04:36:22;;;;;;;6.10;5.50;;;;;;;18.04;100.00;99898.56;4892659;29;20625;-76
2022/08/26 04:38:49;;;;;;;6.17;5.67;;;;;;;18.06;100.00;99899.34;4893487;29;20184;-76
2022/08/26 04:41:15;;;;;;;6.70;6.10;;;;;;;18.07;100.00;99888.81;4899026;29;20199;-75
2022/08/26 04:43:41;;;;;;;6.10;5.70;;;;;;;18.08;100.00;99892.25;4893752;29;20201;-76
2022/08/26 04:46:06;;;;;;;7.80;6.30;;;;;;;18.12;100.00;99891.19;4911637;29;20234;-77
2022/08/26 04:48:32;;;;;;;6.57;5.97;;;;;;;18.16;100.00;99894.50;4894683;29;20278;-75
2022/08/26 04:51:01;;;;;;;6.47;5.97;;;;;;;18.20;100.00;99890.84;4920305;29;20633;-76
2022/08/26 04:53:27;;;;;;;7.30;5.87;;;;;;;18.22;100.00;99892.50;4894789;29;20194;-78
2022/08/26 04:55:53;;;;;;;7.53;6.07;;;;;;;18.27;100.00;99893.09;4891808;29;20193;-74
2022/08/26 04:58:21;;;;;;;7.60;6.77;;;;;;;18.30;100.00;99894.75;4893512;29;20262;-77
2022/08/26 05:00:49;;;;;;;7.57;6.23;;;;;;;18.30;100.00;99901.75;4895015;29;20186;-77
2022/08/26 05:03:16;;;;;;;6.30;5.67;;;;;;;18.30;100.00;99906.97;4909241;29;20217;-75
2022/08/26 05:05:42;;;;;;;8.90;6.33;;;;;;;18.29;100.00;99911.38;4891772;29;20204;-77
2022/08/26 05:08:12;;;;;;;7.70;6.27;;;;;;;18.27;100.00;99908.81;4893853;29;20197;-77
2022/08/26 05:10:44;;;;;;;7.10;5.97;;;;;;;18.27;100.00;99918.47;4907890;29;20311;-77
2022/08/26 05:13:13;;;;;;;10.40;6.57;;;;;;;18.24;100.00;99913.34;4892960;29;20188;-75
2022/08/26 05:15:39;;;;;;;6.87;6.03;;;;;;;18.25;100.00;99910.66;4907898;29;20726;-76
2022/08/26 05:18:06;;;;;;;8.53;6.83;;;;;;;18.26;100.00;99925.44;4909349;29;20234;-75
2022/08/26 05:20:32;;;;;;;7.40;6.63;;;;;;;18.26;100.00;99922.81;4892292;29;20303;-77
2022/08/26 05:23:00;;;;;;;7.47;6.57;;;;;;;18.30;100.00;99914.84;4893862;29;20249;-76
2022/08/26 05:25:29;;;;;;;6.97;6.23;;;;;;;18.47;100.00;99924.50;4908916;29;20184;-76
2022/08/26 05:27:55;;;;;;;7.07;6.47;;;;;;;18.71;100.00;99922.47;4908861;29;20229;-76
2022/08/26 05:30:21;;;;;;;6.60;5.93;;;;;;;18.93;100.00;99930.13;4889754;29;20249;-77
2022/08/26 05:32:48;;;;;;;7.03;6.10;;;;;;;19.10;100.00;99931.09;4895225;29;20619;-76
2022/08/26 05:35:14;;;;;;;6.00;5.50;;;;;;;19.27;100.00;99941.59;4907240;29;20207;-76
2022/08/26 05:37:39;;;;;;;7.07;6.40;;;;;;;19.40;100.00;99948.81;4895337;29;20571;-76
2022/08/26 05:40:05;;;;;;;6.27;5.77;;;;;;;19.57;100.00;99943.56;4892202;29;20186;-76
2022/08/26 05:42:32;;;;;;;6.40;5.77;;;;;;;19.87;100.00;99940.28;4894091;29;20192;-76
2022/08/26 05:44:57;;;;;;;5.77;5.30;;;;;;;20.66;100.00;99950.91;4894496;29;20193;-75
2022/08/26 05:47:23;;;;;;;6.63;6.13;;;;;;;21.68;97.92;99939.75;4892783;29;20211;-75
2022/08/26 05:49:48;;;;;;;6.03;5.53;;;;;;;22.62;94.32;99945.34;4908830;29;20572;-79
2022/08/26 05:52:14;;;;;;;5.40;4.90;;;;;;;23.44;91.13;99951.38;4894920;29;20201;-77
2022/08/26 05:54:39;;;;;;;5.40;5.00;;;;;;;23.98;89.11;99951.25;4895181;29;20196;-78
2022/08/26 05:57:04;;;;;;;5.87;5.37;;;;;;;24.39;87.82;99951.91;4894603;29;20209;-76
2022/08/26 05:59:30;;;;;;;5.43;5.03;;;;;;;25.01;85.83;99960.63;4892201;29;20738;-77
2022/08/26 06:01:55;;;;;;;9.80;5.70;;;;;;;25.65;83.93;99956.69;4901515;29;20664;-76
2022/08/26 06:04:24;;;;;;;6.50;5.50;;;;;;;26.21;82.06;99953.19;4899277;29;20666;-76
2022/08/26 06:06:50;;;;;;;6.50;5.90;;;;;;;26.78;80.64;99947.72;4899103;29;20205;-77
2022/08/26 06:09:15;;;;;;;6.43;5.63;;;;;;;27.21;79.09;99946.84;4896956;29;20185;-76
2022/08/26 06:11:41;;;;;;;7.93;5.67;;;;;;;27.64;77.68;99952.13;4898030;29;20223;-73
2022/08/26 06:14:07;;;;;;;5.30;4.90;;;;;;;28.10;76.69;99950.78;4913595;29;20196;-76
2022/08/26 06:16:37;;;;;;;5.23;4.83;;;;;;;28.49;75.79;99947.34;4895103;29;20302;-76
2022/08/26 06:19:04;;;;;;;4.90;4.50;;;;;;;28.85;74.87;99952.16;4896223;29;20189;-76
2022/08/26 06:21:31;;;;;;;5.20;4.80;;;;;;;29.19;74.18;99949.88;4896119;29;20197;-75
2022/08/26 06:26:59;;;;;;;4.50;4.10;;;;;;;29.78;71.94;99946.22;4897080;29;20243;-76
2022/08/26 06:29:25;;;;;;;5.57;4.73;;;;;;;29.93;71.75;99949.22;4895734;29;20200;-76
2022/08/26 06:31:52;;;;;;;5.10;4.60;;;;;;;30.09;71.42;99952.13;4899725;29;20760;-76
2022/08/26 06:34:18;;;;;;;4.90;4.40;;;;;;;30.29;70.90;99951.16;4919591;29;20192;-77
2022/08/26 06:36:43;;;;;;;4.90;4.50;;;;;;;30.37;70.45;99944.06;4898924;29;20221;-75
2022/08/26 06:39:11;;;;;;;6.57;4.73;;;;;;;30.50;70.11;99954.41;4901563;29;20209;-76
2022/08/26 06:41:37;;;;;;;5.73;5.23;;;;;;;30.40;68.97;99949.13;4900571;29;20216;-75
2022/08/26 06:44:04;;;;;;;5.60;5.10;;;;;;;30.36;69.18;99950.41;4911179;29;20536;-79
2022/08/26 06:46:32;;;;;;;5.33;4.93;;;;;;;30.41;69.36;99955.28;4897282;29;20224;-76
2022/08/26 06:48:57;;;;;;;5.37;4.97;;;;;;;30.53;69.39;99945.22;4910611;29;20216;-76
2022/08/26 06:51:27;;;;;;;5.53;5.13;;;;;;;30.68;68.47;99946.41;4897547;29;20300;-78
2022/08/26 06:53:53;;;;;;;5.30;4.83;;;;;;;30.82;67.72;99939.69;4896504;29;20744;-75
2022/08/26 06:56:22;;;;;;;5.63;4.97;;;;;;;30.87;67.25;99945.38;4895979;29;20220;-76
2022/08/26 06:58:47;;;;;;;5.00;4.60;;;;;;;30.80;66.17;99949.69;4896637;29;20528;-76
2022/08/26 07:01:25;;;;;;;5.13;4.63;;;;;;;30.65;65.73;99952.03;4911113;29;20199;-77
2022/08/26 07:03:55;;;;;;;4.57;4.27;;;;;;;30.51;66.00;99957.88;4895811;29;20240;-77
2022/08/26 07:06:21;;;;;;;5.03;4.57;;;;;;;30.10;66.94;99961.81;4911746;29;20209;-76
2022/08/26 07:08:48;;;;;;;4.73;4.33;;;;;;;30.10;67.77;99955.66;4896092;29;20189;-77
2022/08/26 07:11:14;;;;;;;5.00;4.60;;;;;;;30.20;66.51;99958.22;4892107;29;20717;-77
2022/08/26 07:13:40;;;;;;;5.80;5.30;;;;;;;29.93;66.64;99951.91;4911402;29;20280;-76
2022/08/26 07:16:07;;;;;;;5.53;4.77;;;;;;;29.58;68.24;99956.97;4910124;29;20296;-77
2022/08/26 07:18:35;;;;;;;4.90;4.50;;;;;;;29.61;68.38;99959.34;4911105;29;20192;-75
2022/08/26 07:21:02;;;;;;;5.00;4.60;;;;;;;29.58;67.87;99958.78;4897181;29;20204;-78
2022/08/26 07:23:28;;;;;;;5.07;4.30;;;;;;;29.17;68.90;99961.66;4894262;29;20685;-77
2022/08/26 07:25:53;;;;;;;4.70;4.40;;;;;;;28.80;70.37;99963.25;4896478;29;20189;-77
2022/08/26 07:28:19;;;;;;;5.10;4.70;;;;;;;28.33;71.37;99961.19;4896858;29;20204;-77
2022/08/26 07:30:44;;;;;;;4.30;4.00;;;;;;;27.92;72.34;99963.00;4896308;29;20249;-77
2022/08/26 07:33:09;;;;;;;4.87;4.47;;;;;;;27.58;73.37;99977.41;4914866;29;20200;-77
2022/08/26 07:35:35;;;;;;;4.50;4.20;;;;;;;27.31;74.01;99973.44;4911348;29;20261;-77
2022/08/26 07:38:00;;;;;;;4.50;4.20;;;;;;;27.06;74.56;99970.19;4895876;29;20193;-76
2022/08/26 07:40:25;;;;;;;4.23;3.93;;;;;;;26.87;75.48;99970.03;4895358;29;20219;-76
2022/08/26 07:42:51;;;;;;;4.43;4.13;;;;;;;26.72;75.81;99962.34;4896270;29;20217;-76
2022/08/26 07:45:16;;;;;;;4.13;3.83;;;;;;;26.65;76.14;99960.31;4896236;29;20196;-77
2022/08/26 07:47:42;;;;;;;4.40;4.00;;;;;;;26.55;76.65;99970.84;4895915;29;20209;-77
2022/08/26 07:50:08;;;;;;;3.83;3.53;;;;;;;26.49;76.41;99972.19;4918128;29;22137;-76
2022/08/26 07:52:36;;;;;;;4.23;3.93;;;;;;;26.50;76.91;99981.00;4894581;29;20283;-79
2022/08/26 07:55:03;;;;;;;4.50;4.20;;;;;;;26.50;76.79;99984.47;4896016;29;20189;-76
2022/08/26 07:57:29;;;;;;;4.37;4.07;;;;;;;26.55;77.05;99969.03;4890508;29;20655;-77
2022/08/26 07:59:56;;;;;;;4.10;3.80;;;;;;;26.62;77.53;99970.22;4895912;29;20276;-77
2022/08/26 08:02:22;;;;;;;4.37;4.00;;;;;;;26.66;77.65;99964.66;4894483;29;20686;-76
2022/08/26 08:04:48;;;;;;;4.47;3.97;;;;;;;26.69;77.82;99970.59;4909172;29;20193;-77
2022/08/26 08:07:13;;;;;;;4.43;4.10;;;;;;;26.71;77.72;99967.78;4894635;29;20232;-76
2022/08/26 08:09:38;;;;;;;4.03;3.73;;;;;;;26.74;77.53;99965.72;4895851;29;20272;-77
2022/08/26 08:12:06;;;;;;;4.57;4.27;;;;;;;26.83;77.20;99966.81;4892069;29;20314;-77
2022/08/26 08:14:33;;;;;;;4.47;4.17;;;;;;;27.05;76.83;99970.34;4895932;29;20197;-77
2022/08/26 08:16:59;;;;;;;4.30;4.00;;;;;;;27.34;76.02;99975.84;4895627;29;20456;-77
2022/08/26 08:19:24;;;;;;;4.60;4.20;;;;;;;27.60;75.64;99971.97;4914375;29;20199;-77
2022/08/26 08:21:49;;;;;;;4.97;4.67;;;;;;;27.83;74.80;99970.78;4900740;29;20185;-77
2022/08/26 08:24:15;;;;;;;5.00;4.60;;;;;;;27.95;74.36;99962.75;4896317;29;20286;-77
2022/08/26 08:26:40;;;;;;;4.80;4.40;;;;;;;28.01;74.34;99962.19;4896308;29;20212;-75
2022/08/26 08:29:07;;;;;;;4.50;4.20;;;;;;;28.03;74.24;99970.06;4895024;29;20201;-77
2022/08/26 08:31:34;;;;;;;4.80;4.40;;;;;;;28.06;73.73;99962.63;4896202;29;20240;-76
2022/08/26 08:34:00;;;;;;;4.67;4.33;;;;;;;28.06;73.72;99967.97;4915436;29;20660;-77
2022/08/26 08:36:25;;;;;;;4.43;4.03;;;;;;;27.91;73.45;99967.47;4896633;29;20219;-76
2022/08/26 08:38:51;;;;;;;4.63;4.33;;;;;;;27.89;73.62;99972.09;4893657;29;20197;-78
2022/08/26 08:41:22;;;;;;;4.93;4.53;;;;;;;27.96;73.53;99970.56;4898950;29;20188;-76
2022/08/26 08:43:50;;;;;;;4.80;4.40;;;;;;;27.95;73.34;99968.88;4920979;29;20672;-76
2022/08/26 08:46:18;;;;;;;4.93;4.50;;;;;;;27.94;73.56;99961.06;4897379;29;20223;-77
2022/08/26 08:48:48;;;;;;;4.70;4.40;;;;;;;28.04;74.11;99963.75;4917471;29;20587;-75
2022/08/26 08:51:44;;;;;;;5.63;5.07;;;;;;;28.16;73.36;99964.50;4899906;29;20224;-75
2022/08/26 08:54:10;;;;;;;5.70;5.30;;;;;;;28.16;72.75;99957.38;4908809;29;20196;-77
2022/08/26 08:56:37;;;;;;;5.60;5.20;;;;;;;28.21;73.01;99959.63;4899377;29;20700;-79
2022/08/26 08:59:20;;;;;;;5.30;4.90;;;;;;;28.32;72.51;99961.34;4895767;29;20195;-75
2022/08/26 09:02:07;;;;;;;5.13;4.73;;;;;;;28.44;72.10;99955.72;4899894;29;20655;-76
2022/08/26 09:04:57;;;;;;;5.53;5.03;;;;;;;28.48;72.56;99950.13;4896062;29;20196;-76
2022/08/26 09:07:39;;;;;;;18.40;10.97;;;;;;;28.43;72.18;99958.53;4894175;29;20213;-75
2022/08/26 09:10:16;;;;;;;8.60;7.70;;;;;;;28.33;72.26;99952.38;4894840;29;20196;-75
2022/08/26 09:12:41;;;;;;;7.47;6.73;;;;;;;28.31;72.41;99955.16;4894770;29;20252;-76
2022/08/26 09:15:17;;;;;;;6.53;6.03;;;;;;;28.23;72.92;99952.34;4894585;29;20204;-75
2022/08/26 09:17:56;;;;;;;5.67;5.20;;;;;;;28.11;73.82;99947.16;4893415;29;20208;-78
2022/08/26 09:20:46;;;;;;;5.73;5.27;;;;;;;28.12;73.48;99951.50;4909484;29;20189;-75
2022/08/26 09:23:11;;;;;;;7.53;6.80;;;;;;;28.15;72.95;99947.72;4898040;29;20193;-78
2022/08/26 09:25:58;;;;;;;15.43;10.30;;;;;;;28.15;73.36;99947.72;4899901;29;20200;-76
2022/08/26 09:28:26;;;;;;;7.93;6.70;;;;;;;28.21;73.18;99941.00;4900205;29;20200;-77
2022/08/26 09:31:12;;;;;;;6.87;6.17;;;;;;;28.25;72.37;99948.56;4896145;29;20316;-76
2022/08/26 09:33:39;;;;;;;7.10;6.50;;;;;;;28.24;72.47;99944.22;4913232;29;20199;-78
2022/08/26 09:36:38;;;;;;;6.27;5.77;;;;;;;28.34;72.49;99933.59;4897300;29;20220;-78
2022/08/26 09:39:24;;;;;;;6.57;6.00;;;;;;;28.50;72.38;99933.06;4892275;29;20323;-77
2022/08/26 09:42:24;;;;;;;5.60;5.20;;;;;;;28.65;72.34;99933.50;4898687;29;20196;-75
2022/08/26 09:45:09;;;;;;;5.80;5.30;;;;;;;28.84;71.92;99937.16;4895082;29;20212;-76
2022/08/26 09:47:46;;;;;;;5.37;4.97;;;;;;;28.95;71.98;99926.34;4911368;29;20686;-75
2022/08/26 09:50:24;;;;;;;5.90;5.50;;;;;;;29.14;72.26;99920.13;4899101;29;20253;-76
2022/08/26 09:53:10;;;;;;;5.97;5.37;;;;;;;29.25;72.15;99923.66;4901454;29;20193;-76
2022/08/26 09:55:37;;;;;;;6.37;5.80;;;;;;;29.36;72.25;99910.16;4897969;29;20193;-76
2022/08/26 09:58:03;;;;;;;5.67;5.27;;;;;;;29.43;71.57;99908.59;4898860;29;20240;-77
2022/08/26 10:00:42;;;;;;;5.70;5.17;;;;;;;29.52;71.76;99901.53;4898636;29;20548;-77
2022/08/26 10:03:10;;;;;;;5.33;4.93;;;;;;;29.63;72.15;99901.38;4913733;29;20203;-75
2022/08/26 10:05:36;;;;;;;5.67;5.20;;;;;;;29.71;71.73;99905.13;4899087;29;20193;-76
2022/08/26 10:08:18;;;;;;;5.70;5.30;;;;;;;29.78;70.91;99898.22;4897482;29;20618;-77
2022/08/26 10:10:44;;;;;;;5.47;5.07;;;;;;;29.80;70.61;99889.06;4912365;29;20229;-77
2022/08/26 10:13:26;;;;;;;5.17;4.77;;;;;;;29.79;70.12;99886.56;4898825;29;20272;-77
2022/08/26 10:15:59;;;;;;;6.17;5.67;;;;;;;29.76;69.84;99882.34;4897711;29;20214;-76
2022/08/26 10:18:30;;;;;;;5.60;5.20;;;;;;;29.83;69.73;99876.44;4897469;29;20189;-76
2022/08/26 10:21:24;;;;;;;6.07;5.53;;;;;;;29.93;69.95;99870.06;4902032;29;20189;-77
2022/08/26 10:23:53;;;;;;;5.53;5.13;;;;;;;29.99;69.70;99860.66;4900260;29;20204;-77
2022/08/26 10:26:43;;;;;;;5.80;5.40;;;;;;;30.04;69.79;99858.34;4897769;29;20215;-76
2022/08/26 10:29:23;;;;;;;5.47;5.07;;;;;;;30.18;70.54;99853.47;4911611;29;20272;-76
2022/08/26 10:32:01;;;;;;;5.03;4.67;;;;;;;30.33;70.53;99854.59;4903806;29;20208;-76
2022/08/26 10:34:26;;;;;;;5.60;5.20;;;;;;;30.43;70.11;99849.19;4909676;29;20197;-75
2022/08/26 10:37:01;;;;;;;5.70;5.30;;;;;;;30.46;69.75;99851.56;4912841;29;20275;-76
2022/08/26 10:39:50;;;;;;;5.83;5.33;;;;;;;30.32;69.38;99850.28;4916294;29;20589;-76
2022/08/26 10:42:36;;;;;;;5.70;5.20;;;;;;;30.01;69.27;99845.31;4898402;29;20240;-75
2022/08/26 10:45:11;;;;;;;5.73;5.20;;;;;;;29.84;69.51;99844.25;4895210;29;20195;-75
2022/08/26 10:47:43;;;;;;;5.80;5.40;;;;;;;29.71;69.46;99849.97;4912287;29;20216;-77
2022/08/26 10:50:09;;;;;;;5.57;5.17;;;;;;;29.64;69.36;99844.41;4909458;29;20191;-76
2022/08/26 10:52:47;;;;;;;5.60;5.20;;;;;;;29.73;69.58;99844.47;4895842;29;20666;-75
2022/08/26 10:55:33;;;;;;;5.60;5.20;;;;;;;29.89;69.76;99841.13;4891139;29;20196;-78
2022/08/26 10:58:11;;;;;;;5.17;4.70;;;;;;;30.05;69.25;99836.00;4892722;29;20216;-78
2022/08/26 11:03:59;;;;;;;4.90;4.60;;;;;;;30.35;68.42;99830.44;4896591;29;20309;-77
2022/08/26 11:06:28;;;;;;;5.30;5.00;;;;;;;30.49;67.57;99823.72;4910410;29;20299;-77
2022/08/26 11:08:57;;;;;;;5.13;4.73;;;;;;;30.54;67.40;99824.97;4894023;29;20276;-77
2022/08/26 11:11:40;;;;;;;5.27;4.87;;;;;;;30.58;67.21;99813.97;4893562;29;20697;-76
2022/08/26 11:14:18;;;;;;;5.00;4.70;;;;;;;30.67;67.15;99813.88;4907118;29;20197;-76
2022/08/26 11:16:51;;;;;;;5.63;5.22;;;;;;;30.84;66.87;99812.16;4894998;29;20690;-77
2022/08/26 11:19:36;;;;;;;5.80;5.38;;;;;;;30.96;67.03;99812.72;4896586;29;20201;-75
2022/08/26 11:22:03;;;;;;;5.30;4.80;;;;;;;31.07;66.48;99808.94;4896357;29;20185;-78
2022/08/26 11:24:53;;;;;;;5.60;5.10;;;;;;;31.12;65.87;99801.28;4894927;29;20608;-75
2022/08/26 11:27:27;;;;;;;4.78;4.40;;;;;;;31.18;65.06;99797.16;4897550;29;20320;-76
2022/08/26 11:29:59;;;;;;;5.40;4.83;;;;;;;31.23;64.80;99805.56;4912622;29;20199;-76
2022/08/26 11:32:33;;;;;;;5.17;4.77;;;;;;;31.20;nan;99789.81;4896441;29;20205;-76
2022/08/26 11:35:03;;;;;;;4.80;4.40;;;;;;;31.22;64.09;99787.84;4889576;29;20216;-76
2022/08/26 11:37:34;;;;;;;5.17;4.77;;;;;;;31.23;64.44;99791.34;4917544;29;20238;-77
2022/08/26 11:40:03;;;;;;;5.03;4.63;;;;;;;31.25;63.85;99784.00;4896636;29;20538;-76
2022/08/26 11:42:42;;;;;;;4.78;4.47;;;;;;;31.22;64.06;99785.16;4911129;29;20189;-77
2022/08/26 11:45:22;;;;;;;5.15;4.70;;;;;;;31.22;64.23;99777.16;4915208;29;20196;-78
2022/08/26 11:47:47;;;;;;;4.70;4.40;;;;;;;31.31;64.21;99772.66;4896406;29;20212;-77